createdAt,value
2023-04-03T00:01:06.509Z,-0.18
2023-04-03T00:03:34.748Z,-0.22
2023-04-03T00:06:02.903Z,-0.24
2023-04-03T00:08:31.852Z,-0.27
2023-04-03T00:11:00.800Z,-0.30
2023-04-03T00:13:28.472Z,-0.33
2023-04-03T00:15:56.264Z,-0.36
2023-04-03T00:18:24.208Z,-0.37
2023-04-03T00:20:51.947Z,-0.40
2023-04-03T00:23:19.602Z,-0.42
2023-04-03T00:25:47.387Z,-0.44
2023-04-03T00:28:16.363Z,-0.48
2023-04-03T00:30:44.040Z,-0.51
2023-04-03T00:33:13.553Z,-0.54
2023-04-03T00:35:41.598Z,-0.58
2023-04-03T00:38:10.475Z,-0.58
2023-04-03T00:40:40.762Z,-0.61
2023-04-03T00:43:14.241Z,-0.63
2023-04-03T00:45:45.316Z,-0.68
2023-04-03T00:48:17.785Z,-0.72
2023-04-03T00:50:47.140Z,-0.73
2023-04-03T00:53:20.047Z,-0.76
2023-04-03T00:55:49.796Z,-0.81
2023-04-03T00:58:19.661Z,-0.83
2023-04-03T01:00:52.690Z,-0.86
2023-04-03T01:03:21.347Z,-0.87
2023-04-03T01:05:49.024Z,-0.88
2023-04-03T01:08:16.635Z,-0.91
2023-04-03T01:10:44.637Z,-0.94
2023-04-03T01:13:24.936Z,-0.96
2023-04-03T01:15:54.398Z,-0.99
2023-04-03T01:18:23.689Z,-1.00
2023-04-03T01:21:30.746Z,-1.03
2023-04-03T01:24:07.259Z,-1.03
2023-04-03T01:26:36.637Z,-1.04
2023-04-03T01:29:04.942Z,-1.07
2023-04-03T01:31:45.654Z,-1.09
2023-04-03T01:34:13.322Z,-1.12
2023-04-03T01:36:41.019Z,-1.13
2023-04-03T01:39:09.065Z,-1.15
2023-04-03T01:41:36.773Z,-1.18
2023-04-03T01:44:12.753Z,-1.19
2023-04-03T01:46:40.369Z,-1.22
2023-04-03T01:49:09.325Z,-1.23
2023-04-03T01:51:36.979Z,-1.24
2023-04-03T01:54:05.297Z,-1.25
2023-04-03T01:56:33.114Z,-1.27
2023-04-03T01:59:00.829Z,-1.27
2023-04-03T02:01:28.601Z,-1.28
2023-04-03T02:03:56.442Z,-1.27
2023-04-03T02:06:26.256Z,-1.28
2023-04-03T02:08:54.301Z,-1.28
2023-04-03T02:11:22.200Z,-1.28
2023-04-03T02:13:49.846Z,-1.29
2023-04-03T02:16:17.455Z,-1.29
2023-04-03T02:18:45.132Z,-1.30
2023-04-03T02:21:12.991Z,-1.30
2023-04-03T02:23:42.008Z,-1.33
2023-04-03T02:26:12.017Z,-1.36
2023-04-03T02:28:40.672Z,-1.37
2023-04-03T02:31:09.108Z,-1.38
2023-04-03T02:33:38.008Z,-1.39
2023-04-03T02:36:09.546Z,-1.41
2023-04-03T02:38:38.689Z,-1.44
2023-04-03T02:41:10.450Z,-1.46
2023-04-03T02:43:38.638Z,-1.47
2023-04-03T02:46:07.669Z,-1.48
2023-04-03T02:48:35.436Z,-1.51
2023-04-03T02:51:03.098Z,-1.51
2023-04-03T02:53:30.771Z,-1.53
2023-04-03T02:55:59.582Z,-1.55
2023-04-03T02:58:28.576Z,-1.56
2023-04-03T03:00:58.714Z,-1.56
2023-04-03T03:03:26.481Z,-1.57
2023-04-03T03:06:03.122Z,-1.59
2023-04-03T03:08:30.792Z,-1.60
2023-04-03T03:10:58.435Z,-1.61
2023-04-03T03:13:26.753Z,-1.62
2023-04-03T03:15:55.793Z,-1.64
2023-04-03T03:18:23.467Z,-1.66
2023-04-03T03:20:53.419Z,-1.67
2023-04-03T03:23:21.952Z,-1.71
2023-04-03T03:25:49.691Z,-1.72
2023-04-03T03:28:17.438Z,-1.73
2023-04-03T03:30:45.304Z,-1.75
2023-04-03T03:33:14.255Z,-1.76
2023-04-03T03:35:42.823Z,-1.77
2023-04-03T03:38:10.546Z,-1.78
2023-04-03T03:40:38.695Z,-1.78
2023-04-03T03:43:07.011Z,-1.80
2023-04-03T03:45:34.970Z,-1.81
2023-04-03T03:48:03.431Z,-1.83
2023-04-03T03:50:33.096Z,-1.84
2023-04-03T03:53:01.025Z,-1.85
2023-04-03T03:55:28.920Z,-1.88
2023-04-03T03:57:58.532Z,-1.90
2023-04-03T04:00:26.839Z,-1.92
2023-04-03T04:02:59.316Z,-1.92
2023-04-03T04:05:27.979Z,-1.92
2023-04-03T04:07:57.242Z,-1.93
2023-04-03T04:12:09.301Z,-1.98
2023-04-03T04:14:42.579Z,-1.98
2023-04-03T04:17:15.268Z,-1.98
2023-04-03T04:19:43.769Z,-2.00
2023-04-03T04:22:11.800Z,-2.02
2023-04-03T04:24:42.857Z,-2.00
2023-04-03T04:27:16.660Z,-2.01
2023-04-03T04:29:44.493Z,-2.01
2023-04-03T04:32:12.145Z,-2.02
2023-04-03T04:34:43.228Z,-2.02
2023-04-03T04:37:11.637Z,-2.04
2023-04-03T04:39:42.674Z,-2.02
2023-04-03T04:42:16.008Z,-2.05
2023-04-03T04:44:45.865Z,-2.05
2023-04-03T04:47:15.620Z,-2.08
2023-04-03T04:49:43.682Z,-2.09
2023-04-03T04:52:12.076Z,-2.09
2023-04-03T04:54:41.402Z,-2.11
2023-04-03T04:57:09.174Z,-2.13
2023-04-03T04:59:38.312Z,-2.11
2023-04-03T05:02:08.265Z,-2.12
2023-04-03T05:04:37.010Z,-2.12
2023-04-03T05:07:10.231Z,-2.12
2023-04-03T05:09:39.292Z,-2.10
2023-04-03T05:12:07.177Z,-2.10
2023-04-03T05:14:43.028Z,-2.11
2023-04-03T05:17:12.633Z,-2.11
2023-04-03T05:19:48.192Z,-2.12
2023-04-03T05:22:16.568Z,-2.09
2023-04-03T05:24:44.266Z,-2.09
2023-04-03T05:27:12.034Z,-2.07
2023-04-03T05:29:45.529Z,-2.07
2023-04-03T05:32:18.031Z,-2.06
2023-04-03T05:34:50.006Z,-2.05
2023-04-03T05:37:20.149Z,-2.04
2023-04-03T05:39:48.224Z,-2.01
2023-04-03T05:42:17.057Z,-2.00
2023-04-03T05:44:48.178Z,-1.95
2023-04-03T05:47:15.858Z,-1.94
2023-04-03T05:49:43.594Z,-1.91
2023-04-03T05:52:22.305Z,-1.88
2023-04-03T05:54:50.464Z,-1.86
2023-04-03T05:57:24.923Z,-1.83
2023-04-03T05:59:54.551Z,-1.80
2023-04-03T06:02:25.513Z,-1.78
2023-04-03T06:04:53.766Z,-1.76
2023-04-03T06:07:23.617Z,-1.73
2023-04-03T06:09:52.858Z,-1.70
2023-04-03T06:12:24.629Z,-1.67
2023-04-03T06:14:55.158Z,-1.63
2023-04-03T06:17:23.780Z,-1.59
2023-04-03T06:19:52.338Z,-1.56
2023-04-03T06:22:20.859Z,-1.50
2023-04-03T06:24:48.752Z,-1.46
2023-04-03T06:27:16.631Z,-1.40
2023-04-03T06:29:46.319Z,-1.36
2023-04-03T06:32:16.343Z,-1.31
2023-04-03T06:34:44.054Z,-1.26
2023-04-03T06:37:12.883Z,-1.22
2023-04-03T06:39:40.987Z,-1.17
2023-04-03T06:42:08.590Z,-1.12
2023-04-03T06:44:41.310Z,-1.06
2023-04-03T06:47:11.291Z,-1.03
2023-04-03T06:49:40.241Z,-0.98
2023-04-03T06:52:08.012Z,-0.93
2023-04-03T06:54:37.725Z,-0.88
2023-04-03T06:57:05.853Z,-0.84
2023-04-03T06:59:33.475Z,-0.80
2023-04-03T07:02:01.129Z,-0.74
2023-04-03T07:04:28.768Z,-0.67
2023-04-03T07:06:57.837Z,-0.61
2023-04-03T07:09:25.622Z,-0.54
2023-04-03T07:11:53.291Z,-0.47
2023-04-03T07:14:22.131Z,-0.39
2023-04-03T07:16:49.735Z,-0.30
2023-04-03T07:19:19.117Z,-0.19
2023-04-03T07:21:49.301Z,-0.06
2023-04-03T07:24:18.875Z,0.06
2023-04-03T07:26:47.272Z,0.15
2023-04-03T07:29:15.689Z,0.24
2023-04-03T07:31:43.507Z,0.33
2023-04-03T07:34:11.232Z,0.39
2023-04-03T07:36:39.789Z,0.44
2023-04-03T07:39:08.231Z,0.49
2023-04-03T07:41:37.931Z,0.57
2023-04-03T07:44:06.463Z,0.63
2023-04-03T07:46:34.319Z,0.70
2023-04-03T07:49:02.463Z,0.80
2023-04-03T07:51:30.857Z,0.89
2023-04-03T07:53:58.802Z,0.99
2023-04-03T07:56:27.080Z,1.08
2023-04-03T07:58:56.222Z,1.18
2023-04-03T08:01:24.511Z,1.32
2023-04-03T08:03:52.856Z,1.45
2023-04-03T08:06:29.286Z,1.59
2023-04-03T08:09:01.586Z,1.73
2023-04-03T08:11:33.177Z,1.84
2023-04-03T08:14:03.463Z,1.98
2023-04-03T08:16:31.106Z,2.14
2023-04-03T08:18:58.861Z,2.29
2023-04-03T08:21:27.088Z,2.45
2023-04-03T08:23:54.726Z,2.62
2023-04-03T08:26:23.273Z,2.84
2023-04-03T08:28:51.262Z,3.02
2023-04-03T08:31:21.586Z,3.17
2023-04-03T08:33:50.214Z,3.35
2023-04-03T08:36:21.287Z,3.42
2023-04-03T08:38:49.803Z,3.42
2023-04-03T08:41:31.440Z,3.41
2023-04-03T08:44:06.499Z,3.38
2023-04-03T08:46:50.172Z,3.35
2023-04-03T08:49:27.496Z,3.33
2023-04-03T08:51:56.926Z,3.32
2023-04-03T08:54:36.785Z,3.32
2023-04-03T08:57:08.341Z,3.30
2023-04-03T08:59:40.872Z,3.37
2023-04-03T09:02:27.754Z,3.40
2023-04-03T09:04:56.863Z,3.40
2023-04-03T09:07:35.420Z,3.39
2023-04-03T09:10:04.179Z,3.35
2023-04-03T09:12:40.302Z,3.34
2023-04-03T09:15:22.203Z,3.41
2023-04-03T09:18:04.877Z,3.46
2023-04-03T09:20:43.184Z,3.52
2023-04-03T09:23:24.889Z,3.58
2023-04-03T09:25:58.779Z,3.60
2023-04-03T09:28:27.844Z,3.63
2023-04-03T09:30:57.411Z,3.63
2023-04-03T09:33:32.786Z,3.66
2023-04-03T09:36:04.524Z,3.71
2023-04-03T09:38:35.213Z,3.80
2023-04-03T09:41:09.208Z,3.83
2023-04-03T09:43:41.199Z,3.83
2023-04-03T09:46:24.095Z,3.88
2023-04-03T09:49:08.283Z,3.94
2023-04-03T09:51:38.793Z,3.99
2023-04-03T09:54:35.578Z,4.05
2023-04-03T09:57:09.244Z,4.10
2023-04-03T09:59:37.395Z,4.13
2023-04-03T10:02:22.912Z,4.18
2023-04-03T10:05:06.215Z,4.34
2023-04-03T10:07:40.376Z,4.49
2023-04-03T10:10:21.047Z,4.63
2023-04-03T10:12:50.427Z,4.74
2023-04-03T10:15:21.126Z,4.79
2023-04-03T10:17:56.256Z,4.83
2023-04-03T10:20:35.208Z,4.88
2023-04-03T10:23:16.946Z,4.90
2023-04-03T10:25:56.797Z,5.26
2023-04-03T10:28:31.242Z,5.76
2023-04-03T10:31:07.518Z,6.30
2023-04-03T10:33:53.642Z,6.71
2023-04-03T10:36:33.965Z,6.91
2023-04-03T10:39:11.095Z,6.90
2023-04-03T10:41:55.789Z,6.79
2023-04-03T10:44:39.361Z,6.69
2023-04-03T10:47:19.464Z,6.59
2023-04-03T10:49:59.953Z,6.55
2023-04-03T10:52:39.340Z,6.57
2023-04-03T10:55:26.375Z,6.63
2023-04-03T10:57:56.452Z,6.81
2023-04-03T11:00:33.410Z,6.74
2023-04-03T11:03:03.283Z,6.79
2023-04-03T11:05:40.276Z,7.13
2023-04-03T11:08:18.371Z,7.61
2023-04-03T11:10:50.626Z,8.04
2023-04-03T11:13:24.053Z,8.40
2023-04-03T11:15:54.839Z,8.78
2023-04-03T11:18:28.912Z,9.17
2023-04-03T11:21:04.983Z,9.54
2023-04-03T11:23:48.660Z,9.78
2023-04-03T11:26:19.987Z,9.74
2023-04-03T11:28:48.015Z,9.66
2023-04-03T11:31:28.435Z,9.52
2023-04-03T11:34:05.179Z,9.38
2023-04-03T11:36:37.185Z,9.31
2023-04-03T11:39:22.954Z,9.43
2023-04-03T11:41:53.429Z,9.49
2023-04-03T11:44:35.454Z,9.55
2023-04-03T11:47:03.743Z,9.70
2023-04-03T11:50:00.643Z,9.70
2023-04-03T11:53:00.744Z,9.50
2023-04-03T11:55:53.767Z,9.47
2023-04-03T11:58:25.309Z,9.62
2023-04-03T12:01:09.685Z,9.72
2023-04-03T12:04:06.841Z,10.06
2023-04-03T12:07:05.567Z,10.51
2023-04-03T12:09:58.610Z,11.00
2023-04-03T12:12:32.250Z,11.35
2023-04-03T12:15:26.485Z,11.38
2023-04-03T12:17:57.421Z,11.16
2023-04-03T12:20:57.283Z,10.93
2023-04-03T12:23:32.092Z,10.85
2023-04-03T12:26:07.557Z,11.14
2023-04-03T12:28:41.620Z,11.45
2023-04-03T12:31:13.208Z,11.48
2023-04-03T12:34:04.475Z,11.68
2023-04-03T12:36:43.131Z,12.02
2023-04-03T12:39:38.519Z,12.33
2023-04-03T12:42:19.948Z,12.45
2023-04-03T12:45:00.039Z,12.41
2023-04-03T12:47:34.145Z,12.45
2023-04-03T12:50:04.135Z,12.24
2023-04-03T12:52:37.487Z,12.05
2023-04-03T12:55:18.711Z,12.01
2023-04-03T12:57:46.785Z,12.25
2023-04-03T13:00:28.503Z,12.55
2023-04-03T13:02:56.609Z,12.44
2023-04-03T13:05:25.960Z,12.16
2023-04-03T13:08:00.376Z,11.83
2023-04-03T13:10:28.168Z,11.59
2023-04-03T13:12:59.111Z,11.73
2023-04-03T13:15:30.492Z,12.02
2023-04-03T13:18:01.645Z,11.94
2023-04-03T13:20:31.360Z,11.70
2023-04-03T13:23:02.123Z,11.57
2023-04-03T13:25:33.527Z,11.49
2023-04-03T13:28:12.397Z,11.68
2023-04-03T13:30:58.013Z,11.65
2023-04-03T13:33:29.237Z,11.51
2023-04-03T13:35:58.895Z,11.32
2023-04-03T13:38:31.176Z,11.02
2023-04-03T13:41:03.510Z,10.83
2023-04-03T13:43:33.718Z,10.72
2023-04-03T13:46:07.555Z,10.85
2023-04-03T13:48:41.096Z,10.95
2023-04-03T13:51:20.708Z,11.34
2023-04-03T13:53:52.208Z,11.55
2023-04-03T13:56:24.844Z,11.52
2023-04-03T13:59:22.709Z,11.34
2023-04-03T14:01:54.995Z,11.17
2023-04-03T14:04:24.422Z,10.94
2023-04-03T14:06:52.525Z,10.75
2023-04-03T14:09:23.105Z,10.80
2023-04-03T14:11:53.375Z,11.04
2023-04-03T14:14:24.648Z,11.10
2023-04-03T14:16:57.158Z,11.21
2023-04-03T14:19:28.676Z,11.16
2023-04-03T14:21:59.096Z,10.91
2023-04-03T14:24:28.831Z,10.78
2023-04-03T14:27:00.168Z,10.65
2023-04-03T14:29:28.057Z,10.43
2023-04-03T14:32:11.565Z,10.25
2023-04-03T14:34:43.913Z,10.04
2023-04-03T14:37:14.313Z,9.96
2023-04-03T14:39:43.116Z,10.20
2023-04-03T14:42:14.354Z,10.46
2023-04-03T14:44:42.474Z,10.47
2023-04-03T14:47:30.578Z,10.36
2023-04-03T14:50:00.434Z,10.16
2023-04-03T14:52:34.242Z,10.04
2023-04-03T14:55:06.919Z,9.87
2023-04-03T14:57:35.664Z,9.72
2023-04-03T15:00:05.531Z,9.58
2023-04-03T15:02:41.573Z,9.44
2023-04-03T15:05:12.455Z,9.44
2023-04-03T15:07:42.688Z,9.53
2023-04-03T15:10:24.911Z,9.58
2023-04-03T15:12:56.699Z,9.42
2023-04-03T15:15:25.968Z,9.29
2023-04-03T15:18:03.081Z,9.15
2023-04-03T15:20:34.132Z,9.16
2023-04-03T15:23:02.617Z,9.22
2023-04-03T15:25:32.100Z,9.14
2023-04-03T15:28:01.978Z,9.04
2023-04-03T15:30:29.838Z,8.95
2023-04-03T15:32:59.147Z,8.84
2023-04-03T15:35:33.620Z,8.72
2023-04-03T15:38:03.036Z,8.59
2023-04-03T15:40:34.876Z,8.43
2023-04-03T15:43:03.328Z,8.32
2023-04-03T15:45:37.625Z,8.20
2023-04-03T15:48:18.872Z,8.10
2023-04-03T15:50:47.805Z,8.02
2023-04-03T15:53:15.952Z,7.93
2023-04-03T15:55:44.946Z,7.92
2023-04-03T15:58:14.869Z,7.87
2023-04-03T16:00:43.302Z,7.91
2023-04-03T16:03:23.520Z,7.89
2023-04-03T16:05:51.556Z,7.82
2023-04-03T16:08:21.678Z,7.77
2023-04-03T16:10:49.576Z,7.75
2023-04-03T16:13:20.613Z,7.67
2023-04-03T16:15:51.666Z,7.57
2023-04-03T16:18:27.780Z,7.46
2023-04-03T16:20:56.101Z,7.35
2023-04-03T16:23:25.409Z,7.28
2023-04-03T16:25:55.642Z,7.22
2023-04-03T16:28:25.705Z,7.14
2023-04-03T16:30:53.997Z,7.09
2023-04-03T16:33:28.454Z,7.02
2023-04-03T16:35:56.357Z,6.91
2023-04-03T16:38:28.830Z,6.78
2023-04-03T16:40:58.052Z,6.70
2023-04-03T16:43:27.111Z,6.64
2023-04-03T16:45:56.187Z,6.57
2023-04-03T16:48:25.341Z,6.52
2023-04-03T16:50:54.706Z,6.48
2023-04-03T16:53:26.325Z,6.40
2023-04-03T16:55:54.844Z,6.30
2023-04-03T16:58:29.053Z,6.24
2023-04-03T17:00:57.021Z,6.14
2023-04-03T17:03:30.507Z,6.08
2023-04-03T17:05:58.634Z,6.05
2023-04-03T17:08:27.549Z,5.93
2023-04-03T17:10:56.064Z,5.85
2023-04-03T17:13:24.221Z,5.77
2023-04-03T17:15:54.764Z,5.73
2023-04-03T17:18:23.825Z,5.68
2023-04-03T17:20:54.083Z,5.62
2023-04-03T17:23:26.158Z,5.56
2023-04-03T17:25:56.178Z,5.53
2023-04-03T17:28:28.786Z,5.49
2023-04-03T17:30:56.785Z,5.43
2023-04-03T17:33:24.751Z,5.40
2023-04-03T17:35:54.006Z,5.36
2023-04-03T17:38:21.648Z,5.31
2023-04-03T17:40:49.303Z,5.23
2023-04-03T17:43:17.036Z,5.17
2023-04-03T17:45:44.683Z,5.13
2023-04-03T17:48:12.329Z,5.08
2023-04-03T17:50:39.989Z,5.03
2023-04-03T17:53:08.914Z,4.98
2023-04-03T17:55:38.404Z,4.92
2023-04-03T17:58:06.514Z,4.86
2023-04-03T18:00:34.226Z,4.81
2023-04-03T18:03:01.872Z,4.79
2023-04-03T18:05:30.832Z,4.75
2023-04-03T18:07:59.364Z,4.71
2023-04-03T18:10:28.582Z,4.68
2023-04-03T18:12:56.857Z,4.65
2023-04-03T18:15:25.332Z,4.61
2023-04-03T18:17:56.571Z,4.57
2023-04-03T18:20:24.737Z,4.52
2023-04-03T18:22:52.896Z,4.46
2023-04-03T18:25:20.916Z,4.43
2023-04-03T18:27:50.181Z,4.38
2023-04-03T18:30:18.928Z,4.33
2023-04-03T18:32:46.546Z,4.28
2023-04-03T18:35:14.872Z,4.24
2023-04-03T18:37:42.497Z,4.21
2023-04-03T18:40:11.474Z,4.17
2023-04-03T18:42:41.659Z,4.11
2023-04-03T18:45:12.876Z,4.07
2023-04-03T18:47:40.894Z,4.04
2023-04-03T18:50:09.735Z,4.00
2023-04-03T18:52:37.319Z,3.98
2023-04-03T18:55:06.266Z,3.95
2023-04-03T18:57:33.854Z,3.90
2023-04-03T19:00:01.799Z,3.88
2023-04-03T19:02:31.111Z,3.87
2023-04-03T19:04:58.917Z,3.83
2023-04-03T19:07:26.562Z,3.80
2023-04-03T19:09:54.257Z,3.77
2023-04-03T19:12:21.879Z,3.75
2023-04-03T19:14:49.468Z,3.71
2023-04-03T19:17:17.130Z,3.67
2023-04-03T19:19:46.212Z,3.64
2023-04-03T19:22:13.889Z,3.59
2023-04-03T19:24:41.642Z,3.56
2023-04-03T19:27:09.213Z,3.51
2023-04-03T19:29:36.840Z,3.47
2023-04-03T19:32:04.425Z,3.42
2023-04-03T19:34:32.078Z,3.35
2023-04-03T19:37:02.319Z,3.31
2023-04-03T19:39:31.430Z,3.25
2023-04-03T19:41:59.219Z,3.20
2023-04-03T19:44:27.402Z,3.13
2023-04-03T19:46:55.150Z,3.08
2023-04-03T19:49:22.878Z,3.04
2023-04-03T19:51:50.845Z,2.98
2023-04-03T19:54:20.341Z,2.93
2023-04-03T19:56:48.102Z,2.86
2023-04-03T19:59:17.355Z,2.80
2023-04-03T20:01:46.285Z,2.75
2023-04-03T20:04:15.025Z,2.70
2023-04-03T20:06:42.686Z,2.64
2023-04-03T20:09:10.447Z,2.59
2023-04-03T20:11:40.359Z,2.54
2023-04-03T20:14:08.066Z,2.48
2023-04-03T20:16:36.180Z,2.42
2023-04-03T20:19:06.003Z,2.36
2023-04-03T20:21:35.150Z,2.28
2023-04-03T20:24:05.020Z,2.23
2023-04-03T20:26:33.656Z,2.16
2023-04-03T20:29:03.419Z,2.11
2023-04-03T20:31:32.816Z,2.06
2023-04-03T20:34:01.408Z,2.02
2023-04-03T20:36:29.653Z,1.97
2023-04-03T20:38:57.857Z,1.92
2023-04-03T20:41:25.808Z,1.89
2023-04-03T20:43:53.574Z,1.84
2023-04-03T20:46:25.416Z,1.82
2023-04-03T20:48:53.568Z,1.79
2023-04-03T20:51:22.181Z,1.75
2023-04-03T20:53:50.373Z,1.73
2023-04-03T20:56:18.256Z,1.71
2023-04-03T20:58:47.232Z,1.69
2023-04-03T21:01:17.592Z,1.66
2023-04-03T21:03:47.179Z,1.63
2023-04-03T21:06:52.398Z,1.59
2023-04-03T21:09:57.862Z,1.55
2023-04-03T21:13:03.254Z,1.52
2023-04-03T21:15:49.989Z,1.48
2023-04-03T21:18:52.921Z,1.45
2023-04-03T21:21:23.166Z,1.39
2023-04-03T21:23:52.037Z,1.34
2023-04-03T21:26:21.616Z,1.30
2023-04-03T21:28:51.534Z,1.24
2023-04-03T21:31:19.453Z,1.21
2023-04-03T21:33:48.471Z,1.16
2023-04-03T21:36:16.275Z,1.11
2023-04-03T21:38:47.641Z,1.07
2023-04-03T21:41:15.546Z,1.01
2023-04-03T21:43:43.216Z,0.96
2023-04-03T21:46:10.879Z,0.92
2023-04-03T21:48:39.265Z,0.87
2023-04-03T21:51:08.332Z,0.83
2023-04-03T21:53:36.107Z,0.79
2023-04-03T21:56:03.761Z,0.74
2023-04-03T21:58:32.047Z,0.69
2023-04-03T22:01:09.509Z,0.64
2023-04-03T22:03:37.490Z,0.59
2023-04-03T22:06:06.053Z,0.55
2023-04-03T22:08:35.111Z,0.48
2023-04-03T22:11:03.736Z,0.43
2023-04-03T22:13:31.793Z,0.41
2023-04-03T22:16:00.212Z,0.35
2023-04-03T22:18:27.809Z,0.32
2023-04-03T22:20:55.912Z,0.28
2023-04-03T22:23:23.869Z,0.26
2023-04-03T22:26:00.325Z,0.21
2023-04-03T22:28:28.657Z,0.16
2023-04-03T22:30:57.113Z,0.13
2023-04-03T22:33:24.939Z,0.09
2023-04-03T22:35:52.983Z,0.07
2023-04-03T22:38:20.605Z,0.01
2023-04-03T22:40:48.403Z,-0.05
2023-04-03T22:43:17.595Z,-0.07
2023-04-03T22:45:48.842Z,-0.11
2023-04-03T22:48:16.740Z,-0.15
2023-04-03T22:50:44.577Z,-0.19
2023-04-03T22:53:12.294Z,-0.21
2023-04-03T22:55:39.902Z,-0.24
2023-04-03T22:58:08.153Z,-0.28
2023-04-03T23:00:37.200Z,-0.31
2023-04-03T23:03:04.976Z,-0.32
2023-04-03T23:05:32.654Z,-0.36
2023-04-03T23:08:00.670Z,-0.40
2023-04-03T23:10:28.278Z,-0.43
2023-04-03T23:12:56.015Z,-0.46
2023-04-03T23:15:23.606Z,-0.48
2023-04-03T23:17:52.621Z,-0.50
2023-04-03T23:20:20.360Z,-0.52
2023-04-03T23:22:48.057Z,-0.54
2023-04-03T23:25:15.810Z,-0.56
2023-04-03T23:27:43.417Z,-0.59
2023-04-03T23:30:11.922Z,-0.61
2023-04-03T23:32:39.566Z,-0.64
2023-04-03T23:35:09.514Z,-0.67
2023-04-03T23:37:37.119Z,-0.71
2023-04-03T23:40:05.161Z,-0.77
2023-04-03T23:42:32.798Z,-0.78
2023-04-03T23:45:00.686Z,-0.79
2023-04-03T23:47:28.458Z,-0.82
2023-04-03T23:49:56.156Z,-0.82
2023-04-03T23:52:25.144Z,-0.85
2023-04-03T23:54:52.706Z,-0.87
2023-04-03T23:57:20.303Z,-0.90
2023-04-03T23:59:47.877Z,-0.90
